sensor_id;sensor_type;location;lat;lon;timestamp;P1;durP1;ratioP1;P2;durP2;ratioP2
22937;SDS011;11634;42.734;23.298;2024-02-28T00:02:10;30.42;;;18.58;;
22937;SDS011;11634;42.734;23.298;2024-02-28T00:04:35;26.00;;;18.25;;
22937;SDS011;11634;42.734;23.298;2024-02-28T00:07:01;28.40;;;19.17;;
22937;SDS011;11634;42.734;23.298;2024-02-28T00:09:27;26.55;;;18.98;;
22937;SDS011;11634;42.734;23.298;2024-02-28T00:11:52;33.38;;;20.35;;
22937;SDS011;11634;42.734;23.298;2024-02-28T00:14:18;29.23;;;18.98;;
22937;SDS011;11634;42.734;23.298;2024-02-28T00:16:44;26.58;;;18.63;;
22937;SDS011;11634;42.734;23.298;2024-02-28T00:19:10;29.17;;;19.67;;
22937;SDS011;11634;42.734;23.298;2024-02-28T00:21:39;31.52;;;19.55;;
22937;SDS011;11634;42.734;23.298;2024-02-28T00:24:05;29.33;;;18.83;;
22937;SDS011;11634;42.734;23.298;2024-02-28T00:26:30;31.42;;;19.15;;
22937;SDS011;11634;42.734;23.298;2024-02-28T00:28:56;27.80;;;18.67;;
22937;SDS011;11634;42.734;23.298;2024-02-28T00:31:21;29.88;;;19.77;;
22937;SDS011;11634;42.734;23.298;2024-02-28T00:33:47;26.52;;;19.17;;
22937;SDS011;11634;42.734;23.298;2024-02-28T00:36:13;28.42;;;19.10;;
22937;SDS011;11634;42.734;23.298;2024-02-28T00:38:40;30.25;;;18.17;;
22937;SDS011;11634;42.734;23.298;2024-02-28T00:41:06;33.30;;;20.05;;
22937;SDS011;11634;42.734;23.298;2024-02-28T00:43:31;31.38;;;19.65;;
22937;SDS011;11634;42.734;23.298;2024-02-28T00:45:57;29.98;;;20.13;;
22937;SDS011;11634;42.734;23.298;2024-02-28T00:48:24;32.90;;;19.40;;
22937;SDS011;11634;42.734;23.298;2024-02-28T00:50:49;24.20;;;18.65;;
22937;SDS011;11634;42.734;23.298;2024-02-28T00:53:15;27.30;;;20.55;;
22937;SDS011;11634;42.734;23.298;2024-02-28T00:55:40;27.65;;;17.95;;
22937;SDS011;11634;42.734;23.298;2024-02-28T00:58:06;31.65;;;19.77;;
22937;SDS011;11634;42.734;23.298;2024-02-28T01:00:32;28.63;;;18.58;;
22937;SDS011;11634;42.734;23.298;2024-02-28T01:02:58;28.92;;;17.92;;
22937;SDS011;11634;42.734;23.298;2024-02-28T01:05:24;27.15;;;18.25;;
22937;SDS011;11634;42.734;23.298;2024-02-28T01:07:49;28.35;;;17.90;;
22937;SDS011;11634;42.734;23.298;2024-02-28T01:10:15;29.60;;;17.80;;
22937;SDS011;11634;42.734;23.298;2024-02-28T01:12:40;27.95;;;19.25;;
22937;SDS011;11634;42.734;23.298;2024-02-28T01:15:06;26.02;;;19.45;;
22937;SDS011;11634;42.734;23.298;2024-02-28T01:17:32;28.13;;;18.48;;
22937;SDS011;11634;42.734;23.298;2024-02-28T01:19:58;28.77;;;18.75;;
22937;SDS011;11634;42.734;23.298;2024-02-28T01:22:23;29.52;;;19.02;;
22937;SDS011;11634;42.734;23.298;2024-02-28T01:24:49;29.85;;;19.95;;
22937;SDS011;11634;42.734;23.298;2024-02-28T01:27:14;25.42;;;18.50;;
22937;SDS011;11634;42.734;23.298;2024-02-28T01:29:40;25.05;;;16.85;;
22937;SDS011;11634;42.734;23.298;2024-02-28T01:32:05;33.05;;;18.40;;
22937;SDS011;11634;42.734;23.298;2024-02-28T01:34:31;25.70;;;17.80;;
22937;SDS011;11634;42.734;23.298;2024-02-28T01:36:56;30.30;;;19.40;;
22937;SDS011;11634;42.734;23.298;2024-02-28T01:39:22;30.13;;;19.30;;
22937;SDS011;11634;42.734;23.298;2024-02-28T01:41:54;25.48;;;17.67;;
22937;SDS011;11634;42.734;23.298;2024-02-28T01:44:20;24.77;;;17.70;;
22937;SDS011;11634;42.734;23.298;2024-02-28T01:46:46;28.08;;;19.48;;
22937;SDS011;11634;42.734;23.298;2024-02-28T01:49:14;25.80;;;17.40;;
22937;SDS011;11634;42.734;23.298;2024-02-28T01:51:41;26.02;;;18.42;;
22937;SDS011;11634;42.734;23.298;2024-02-28T01:54:07;33.83;;;20.92;;
22937;SDS011;11634;42.734;23.298;2024-02-28T01:56:33;29.73;;;21.05;;
22937;SDS011;11634;42.734;23.298;2024-02-28T01:58:59;34.97;;;20.88;;
22937;SDS011;11634;42.734;23.298;2024-02-28T02:01:26;26.75;;;19.38;;
22937;SDS011;11634;42.734;23.298;2024-02-28T02:03:52;33.38;;;19.42;;
22937;SDS011;11634;42.734;23.298;2024-02-28T02:06:18;31.45;;;21.05;;
22937;SDS011;11634;42.734;23.298;2024-02-28T02:08:45;29.25;;;21.63;;
22937;SDS011;11634;42.734;23.298;2024-02-28T02:11:12;29.40;;;22.25;;
22937;SDS011;11634;42.734;23.298;2024-02-28T02:13:52;30.58;;;22.50;;
22937;SDS011;11634;42.734;23.298;2024-02-28T02:16:18;31.52;;;22.80;;
22937;SDS011;11634;42.734;23.298;2024-02-28T02:18:44;28.33;;;21.50;;
22937;SDS011;11634;42.734;23.298;2024-02-28T02:21:11;32.42;;;20.70;;
22937;SDS011;11634;42.734;23.298;2024-02-28T02:23:38;34.05;;;23.33;;
22937;SDS011;11634;42.734;23.298;2024-02-28T02:26:06;32.35;;;22.50;;
22937;SDS011;11634;42.734;23.298;2024-02-28T02:28:32;31.60;;;21.13;;
22937;SDS011;11634;42.734;23.298;2024-02-28T02:30:58;34.55;;;22.90;;
22937;SDS011;11634;42.734;23.298;2024-02-28T02:33:23;34.25;;;24.38;;
22937;SDS011;11634;42.734;23.298;2024-02-28T02:35:49;32.42;;;23.45;;
22937;SDS011;11634;42.734;23.298;2024-02-28T02:38:14;33.65;;;23.27;;
22937;SDS011;11634;42.734;23.298;2024-02-28T02:40:40;32.92;;;23.92;;
22937;SDS011;11634;42.734;23.298;2024-02-28T02:43:05;31.95;;;23.95;;
22937;SDS011;11634;42.734;23.298;2024-02-28T02:45:31;33.75;;;25.42;;
22937;SDS011;11634;42.734;23.298;2024-02-28T02:47:56;34.90;;;24.17;;
22937;SDS011;11634;42.734;23.298;2024-02-28T02:50:22;30.33;;;20.55;;
22937;SDS011;11634;42.734;23.298;2024-02-28T02:52:47;40.80;;;23.48;;
22937;SDS011;11634;42.734;23.298;2024-02-28T02:55:13;31.60;;;21.23;;
22937;SDS011;11634;42.734;23.298;2024-02-28T02:57:39;35.47;;;23.10;;
22937;SDS011;11634;42.734;23.298;2024-02-28T03:00:07;31.27;;;21.95;;
22937;SDS011;11634;42.734;23.298;2024-02-28T03:02:33;37.10;;;23.27;;
22937;SDS011;11634;42.734;23.298;2024-02-28T03:04:58;35.88;;;23.92;;
22937;SDS011;11634;42.734;23.298;2024-02-28T03:07:24;32.97;;;23.63;;
22937;SDS011;11634;42.734;23.298;2024-02-28T03:09:49;32.65;;;22.70;;
22937;SDS011;11634;42.734;23.298;2024-02-28T03:12:15;35.15;;;24.10;;
22937;SDS011;11634;42.734;23.298;2024-02-28T03:14:40;34.88;;;23.63;;
22937;SDS011;11634;42.734;23.298;2024-02-28T03:17:06;32.38;;;23.27;;
22937;SDS011;11634;42.734;23.298;2024-02-28T03:19:31;33.88;;;22.92;;
22937;SDS011;11634;42.734;23.298;2024-02-28T03:21:57;37.28;;;22.75;;
22937;SDS011;11634;42.734;23.298;2024-02-28T03:24:22;32.30;;;23.45;;
22937;SDS011;11634;42.734;23.298;2024-02-28T03:26:49;36.13;;;23.40;;
22937;SDS011;11634;42.734;23.298;2024-02-28T03:29:16;34.78;;;22.27;;
22937;SDS011;11634;42.734;23.298;2024-02-28T03:31:41;31.20;;;21.00;;
22937;SDS011;11634;42.734;23.298;2024-02-28T03:34:07;38.33;;;24.50;;
22937;SDS011;11634;42.734;23.298;2024-02-28T03:36:34;35.67;;;23.70;;
22937;SDS011;11634;42.734;23.298;2024-02-28T03:39:00;33.03;;;22.42;;
22937;SDS011;11634;42.734;23.298;2024-02-28T03:41:25;39.35;;;23.90;;
22937;SDS011;11634;42.734;23.298;2024-02-28T03:43:51;34.47;;;23.52;;
22937;SDS011;11634;42.734;23.298;2024-02-28T03:46:16;35.38;;;23.83;;
22937;SDS011;11634;42.734;23.298;2024-02-28T03:48:42;30.80;;;20.65;;
22937;SDS011;11634;42.734;23.298;2024-02-28T03:51:07;35.17;;;23.60;;
22937;SDS011;11634;42.734;23.298;2024-02-28T03:53:33;34.47;;;23.80;;
22937;SDS011;11634;42.734;23.298;2024-02-28T03:56:00;34.55;;;24.05;;
22937;SDS011;11634;42.734;23.298;2024-02-28T03:58:25;31.15;;;23.27;;
22937;SDS011;11634;42.734;23.298;2024-02-28T04:00:52;36.75;;;24.70;;
22937;SDS011;11634;42.734;23.298;2024-02-28T04:03:18;36.00;;;24.55;;
22937;SDS011;11634;42.734;23.298;2024-02-28T04:05:44;33.42;;;23.15;;
22937;SDS011;11634;42.734;23.298;2024-02-28T04:08:10;37.22;;;24.60;;
22937;SDS011;11634;42.734;23.298;2024-02-28T04:10:35;35.58;;;23.63;;
22937;SDS011;11634;42.734;23.298;2024-02-28T04:13:01;37.67;;;24.77;;
22937;SDS011;11634;42.734;23.298;2024-02-28T04:15:26;35.17;;;24.65;;
22937;SDS011;11634;42.734;23.298;2024-02-28T04:17:52;38.47;;;24.83;;
22937;SDS011;11634;42.734;23.298;2024-02-28T04:20:18;38.38;;;24.92;;
22937;SDS011;11634;42.734;23.298;2024-02-28T04:22:43;37.65;;;24.65;;
22937;SDS011;11634;42.734;23.298;2024-02-28T04:25:12;37.28;;;26.48;;
22937;SDS011;11634;42.734;23.298;2024-02-28T04:27:40;41.25;;;26.52;;
22937;SDS011;11634;42.734;23.298;2024-02-28T04:30:07;39.92;;;26.85;;
22937;SDS011;11634;42.734;23.298;2024-02-28T04:32:33;37.65;;;26.75;;
22937;SDS011;11634;42.734;23.298;2024-02-28T04:35:02;38.92;;;25.77;;
22937;SDS011;11634;42.734;23.298;2024-02-28T04:37:31;34.08;;;24.23;;
22937;SDS011;11634;42.734;23.298;2024-02-28T04:39:56;44.20;;;27.13;;
22937;SDS011;11634;42.734;23.298;2024-02-28T04:42:22;39.88;;;25.98;;
22937;SDS011;11634;42.734;23.298;2024-02-28T04:44:47;38.13;;;25.42;;
22937;SDS011;11634;42.734;23.298;2024-02-28T04:47:13;40.58;;;25.05;;
22937;SDS011;11634;42.734;23.298;2024-02-28T04:49:39;43.53;;;24.63;;
22937;SDS011;11634;42.734;23.298;2024-02-28T04:52:04;40.75;;;24.48;;
22937;SDS011;11634;42.734;23.298;2024-02-28T04:54:36;40.00;;;24.90;;
22937;SDS011;11634;42.734;23.298;2024-02-28T04:57:02;37.85;;;24.33;;
22937;SDS011;11634;42.734;23.298;2024-02-28T04:59:28;35.65;;;23.60;;
22937;SDS011;11634;42.734;23.298;2024-02-28T05:01:54;34.78;;;24.67;;
22937;SDS011;11634;42.734;23.298;2024-02-28T05:04:19;37.38;;;25.88;;
22937;SDS011;11634;42.734;23.298;2024-02-28T05:06:46;38.33;;;25.02;;
22937;SDS011;11634;42.734;23.298;2024-02-28T05:09:14;34.75;;;24.80;;
22937;SDS011;11634;42.734;23.298;2024-02-28T05:11:40;39.72;;;24.77;;
22937;SDS011;11634;42.734;23.298;2024-02-28T05:14:06;36.70;;;25.73;;
22937;SDS011;11634;42.734;23.298;2024-02-28T05:16:31;58.03;;;36.97;;
22937;SDS011;11634;42.734;23.298;2024-02-28T05:18:57;64.85;;;42.35;;
22937;SDS011;11634;42.734;23.298;2024-02-28T05:21:23;66.30;;;42.30;;
22937;SDS011;11634;42.734;23.298;2024-02-28T05:23:51;73.07;;;43.35;;
22937;SDS011;11634;42.734;23.298;2024-02-28T05:26:16;67.07;;;41.92;;
22937;SDS011;11634;42.734;23.298;2024-02-28T05:28:42;73.00;;;44.08;;
22937;SDS011;11634;42.734;23.298;2024-02-28T05:31:23;67.60;;;39.90;;
22937;SDS011;11634;42.734;23.298;2024-02-28T05:33:51;63.60;;;38.35;;
22937;SDS011;11634;42.734;23.298;2024-02-28T05:36:17;67.00;;;36.67;;
22937;SDS011;11634;42.734;23.298;2024-02-28T05:38:44;55.20;;;33.60;;
22937;SDS011;11634;42.734;23.298;2024-02-28T05:41:09;47.70;;;32.72;;
22937;SDS011;11634;42.734;23.298;2024-02-28T05:43:36;89.63;;;53.58;;
22937;SDS011;11634;42.734;23.298;2024-02-28T05:46:02;73.43;;;44.67;;
22937;SDS011;11634;42.734;23.298;2024-02-28T05:48:27;58.05;;;36.45;;
22937;SDS011;11634;42.734;23.298;2024-02-28T05:50:53;63.38;;;39.00;;
22937;SDS011;11634;42.734;23.298;2024-02-28T05:53:18;57.95;;;35.30;;
22937;SDS011;11634;42.734;23.298;2024-02-28T05:55:44;52.00;;;35.67;;
22937;SDS011;11634;42.734;23.298;2024-02-28T05:58:10;55.95;;;34.65;;
22937;SDS011;11634;42.734;23.298;2024-02-28T06:00:35;51.22;;;33.42;;
22937;SDS011;11634;42.734;23.298;2024-02-28T06:03:01;51.35;;;34.10;;
22937;SDS011;11634;42.734;23.298;2024-02-28T06:05:27;52.67;;;33.30;;
22937;SDS011;11634;42.734;23.298;2024-02-28T06:07:52;43.17;;;30.70;;
22937;SDS011;11634;42.734;23.298;2024-02-28T06:10:17;41.95;;;27.17;;
22937;SDS011;11634;42.734;23.298;2024-02-28T06:12:43;44.63;;;27.63;;
22937;SDS011;11634;42.734;23.298;2024-02-28T06:15:09;38.85;;;27.17;;
22937;SDS011;11634;42.734;23.298;2024-02-28T06:17:34;40.65;;;27.23;;
22937;SDS011;11634;42.734;23.298;2024-02-28T06:20:00;40.72;;;25.00;;
22937;SDS011;11634;42.734;23.298;2024-02-28T06:22:25;35.63;;;24.70;;
22937;SDS011;11634;42.734;23.298;2024-02-28T06:24:50;32.22;;;24.58;;
22937;SDS011;11634;42.734;23.298;2024-02-28T06:27:16;43.55;;;25.90;;
22937;SDS011;11634;42.734;23.298;2024-02-28T06:29:41;42.00;;;26.92;;
22937;SDS011;11634;42.734;23.298;2024-02-28T06:32:08;44.65;;;26.30;;
22937;SDS011;11634;42.734;23.298;2024-02-28T06:34:37;50.35;;;27.00;;
22937;SDS011;11634;42.734;23.298;2024-02-28T06:37:04;39.10;;;24.80;;
22937;SDS011;11634;42.734;23.298;2024-02-28T06:39:32;37.03;;;24.33;;
22937;SDS011;11634;42.734;23.298;2024-02-28T06:41:59;36.10;;;26.42;;
22937;SDS011;11634;42.734;23.298;2024-02-28T06:44:24;36.72;;;23.20;;
22937;SDS011;11634;42.734;23.298;2024-02-28T06:46:50;37.80;;;25.27;;
22937;SDS011;11634;42.734;23.298;2024-02-28T06:49:15;40.55;;;25.27;;
22937;SDS011;11634;42.734;23.298;2024-02-28T06:51:42;44.17;;;26.45;;
22937;SDS011;11634;42.734;23.298;2024-02-28T06:54:08;37.58;;;25.35;;
22937;SDS011;11634;42.734;23.298;2024-02-28T06:56:33;36.92;;;24.50;;
22937;SDS011;11634;42.734;23.298;2024-02-28T06:59:02;36.42;;;24.92;;
22937;SDS011;11634;42.734;23.298;2024-02-28T07:01:29;37.50;;;25.52;;
22937;SDS011;11634;42.734;23.298;2024-02-28T07:03:57;39.83;;;26.20;;
22937;SDS011;11634;42.734;23.298;2024-02-28T07:06:23;39.85;;;26.13;;
22937;SDS011;11634;42.734;23.298;2024-02-28T07:08:49;39.03;;;25.17;;
22937;SDS011;11634;42.734;23.298;2024-02-28T07:11:14;40.15;;;26.52;;
22937;SDS011;11634;42.734;23.298;2024-02-28T07:13:40;47.95;;;26.42;;
22937;SDS011;11634;42.734;23.298;2024-02-28T07:16:06;40.35;;;25.75;;
22937;SDS011;11634;42.734;23.298;2024-02-28T07:18:33;38.38;;;26.85;;
22937;SDS011;11634;42.734;23.298;2024-02-28T07:20:58;36.60;;;25.52;;
22937;SDS011;11634;42.734;23.298;2024-02-28T07:23:24;34.42;;;24.23;;
22937;SDS011;11634;42.734;23.298;2024-02-28T07:25:49;34.35;;;22.52;;
22937;SDS011;11634;42.734;23.298;2024-02-28T07:28:15;36.95;;;25.95;;
22937;SDS011;11634;42.734;23.298;2024-02-28T07:30:40;36.72;;;24.60;;
22937;SDS011;11634;42.734;23.298;2024-02-28T07:33:06;33.40;;;22.20;;
22937;SDS011;11634;42.734;23.298;2024-02-28T07:35:31;37.38;;;22.98;;
22937;SDS011;11634;42.734;23.298;2024-02-28T07:37:57;34.03;;;24.58;;
22937;SDS011;11634;42.734;23.298;2024-02-28T07:40:23;43.65;;;26.02;;
22937;SDS011;11634;42.734;23.298;2024-02-28T07:42:49;38.72;;;24.90;;
22937;SDS011;11634;42.734;23.298;2024-02-28T07:45:15;33.78;;;24.25;;
22937;SDS011;11634;42.734;23.298;2024-02-28T07:47:42;38.00;;;26.25;;
22937;SDS011;11634;42.734;23.298;2024-02-28T07:50:07;38.28;;;24.85;;
22937;SDS011;11634;42.734;23.298;2024-02-28T07:52:32;32.95;;;22.98;;
22937;SDS011;11634;42.734;23.298;2024-02-28T07:55:00;31.05;;;21.33;;
22937;SDS011;11634;42.734;23.298;2024-02-28T07:57:26;34.63;;;22.25;;
22937;SDS011;11634;42.734;23.298;2024-02-28T07:59:51;32.30;;;23.23;;
22937;SDS011;11634;42.734;23.298;2024-02-28T08:02:17;30.17;;;21.77;;
22937;SDS011;11634;42.734;23.298;2024-02-28T08:04:45;30.95;;;22.25;;
22937;SDS011;11634;42.734;23.298;2024-02-28T08:07:11;34.47;;;21.67;;
22937;SDS011;11634;42.734;23.298;2024-02-28T08:09:36;33.38;;;23.75;;
22937;SDS011;11634;42.734;23.298;2024-02-28T08:12:02;34.20;;;22.65;;
22937;SDS011;11634;42.734;23.298;2024-02-28T08:14:29;26.83;;;19.83;;
22937;SDS011;11634;42.734;23.298;2024-02-28T08:16:55;27.60;;;20.88;;
22937;SDS011;11634;42.734;23.298;2024-02-28T08:19:21;32.65;;;22.30;;
22937;SDS011;11634;42.734;23.298;2024-02-28T08:21:48;31.13;;;22.95;;
22937;SDS011;11634;42.734;23.298;2024-02-28T08:24:13;37.00;;;22.95;;
22937;SDS011;11634;42.734;23.298;2024-02-28T08:26:39;32.60;;;23.38;;
22937;SDS011;11634;42.734;23.298;2024-02-28T08:29:06;32.08;;;23.38;;
22937;SDS011;11634;42.734;23.298;2024-02-28T08:31:31;40.40;;;22.83;;
22937;SDS011;11634;42.734;23.298;2024-02-28T08:33:57;35.45;;;24.58;;
22937;SDS011;11634;42.734;23.298;2024-02-28T08:36:22;30.00;;;22.75;;
22937;SDS011;11634;42.734;23.298;2024-02-28T08:38:48;34.80;;;22.15;;
22937;SDS011;11634;42.734;23.298;2024-02-28T08:41:13;32.58;;;22.63;;
22937;SDS011;11634;42.734;23.298;2024-02-28T08:43:39;30.48;;;22.63;;
22937;SDS011;11634;42.734;23.298;2024-02-28T08:46:05;34.53;;;23.33;;
22937;SDS011;11634;42.734;23.298;2024-02-28T08:48:34;27.70;;;21.33;;
22937;SDS011;11634;42.734;23.298;2024-02-28T08:51:00;28.45;;;20.10;;
22937;SDS011;11634;42.734;23.298;2024-02-28T08:53:25;24.90;;;19.65;;
22937;SDS011;11634;42.734;23.298;2024-02-28T08:55:51;29.50;;;19.05;;
22937;SDS011;11634;42.734;23.298;2024-02-28T08:58:17;27.98;;;19.23;;
22937;SDS011;11634;42.734;23.298;2024-02-28T09:00:43;27.42;;;19.30;;
22937;SDS011;11634;42.734;23.298;2024-02-28T09:03:08;26.08;;;17.17;;
22937;SDS011;11634;42.734;23.298;2024-02-28T09:05:34;24.73;;;17.55;;
22937;SDS011;11634;42.734;23.298;2024-02-28T09:07:59;25.23;;;17.17;;
22937;SDS011;11634;42.734;23.298;2024-02-28T09:10:26;27.30;;;18.50;;
22937;SDS011;11634;42.734;23.298;2024-02-28T09:12:51;27.33;;;18.05;;
22937;SDS011;11634;42.734;23.298;2024-02-28T09:15:19;26.15;;;18.80;;
22937;SDS011;11634;42.734;23.298;2024-02-28T09:17:46;34.25;;;20.45;;
22937;SDS011;11634;42.734;23.298;2024-02-28T09:20:15;28.55;;;19.65;;
22937;SDS011;11634;42.734;23.298;2024-02-28T09:22:41;29.80;;;19.92;;
22937;SDS011;11634;42.734;23.298;2024-02-28T09:25:08;28.45;;;18.15;;
22937;SDS011;11634;42.734;23.298;2024-02-28T09:27:34;24.13;;;17.05;;
22937;SDS011;11634;42.734;23.298;2024-02-28T09:30:01;21.67;;;16.52;;
22937;SDS011;11634;42.734;23.298;2024-02-28T09:32:27;25.85;;;16.63;;
22937;SDS011;11634;42.734;23.298;2024-02-28T09:34:53;21.90;;;16.10;;
22937;SDS011;11634;42.734;23.298;2024-02-28T09:37:18;18.90;;;14.80;;
22937;SDS011;11634;42.734;23.298;2024-02-28T09:39:46;23.05;;;15.75;;
22937;SDS011;11634;42.734;23.298;2024-02-28T09:42:11;21.80;;;14.52;;
22937;SDS011;11634;42.734;23.298;2024-02-28T09:44:38;25.63;;;16.25;;
22937;SDS011;11634;42.734;23.298;2024-02-28T09:47:05;25.35;;;15.20;;
22937;SDS011;11634;42.734;23.298;2024-02-28T09:49:31;21.27;;;15.35;;
22937;SDS011;11634;42.734;23.298;2024-02-28T09:51:57;21.65;;;14.75;;
22937;SDS011;11634;42.734;23.298;2024-02-28T09:54:23;27.75;;;14.43;;
22937;SDS011;11634;42.734;23.298;2024-02-28T09:56:48;26.52;;;14.95;;
22937;SDS011;11634;42.734;23.298;2024-02-28T09:59:16;19.95;;;14.38;;
22937;SDS011;11634;42.734;23.298;2024-02-28T10:01:47;17.20;;;12.15;;
22937;SDS011;11634;42.734;23.298;2024-02-28T10:04:16;19.63;;;13.63;;
22937;SDS011;11634;42.734;23.298;2024-02-28T10:06:42;20.98;;;15.27;;
22937;SDS011;11634;42.734;23.298;2024-02-28T10:09:10;23.23;;;14.32;;
22937;SDS011;11634;42.734;23.298;2024-02-28T10:11:35;19.85;;;13.68;;
22937;SDS011;11634;42.734;23.298;2024-02-28T10:14:01;14.88;;;11.75;;
22937;SDS011;11634;42.734;23.298;2024-02-28T10:16:27;19.50;;;13.07;;
22937;SDS011;11634;42.734;23.298;2024-02-28T10:18:53;20.92;;;14.07;;
22937;SDS011;11634;42.734;23.298;2024-02-28T10:21:19;20.75;;;13.88;;
22937;SDS011;11634;42.734;23.298;2024-02-28T10:23:44;20.00;;;12.55;;
22937;SDS011;11634;42.734;23.298;2024-02-28T10:26:10;18.05;;;11.10;;
22937;SDS011;11634;42.734;23.298;2024-02-28T10:28:39;18.05;;;12.27;;
22937;SDS011;11634;42.734;23.298;2024-02-28T10:31:05;19.88;;;12.90;;
22937;SDS011;11634;42.734;23.298;2024-02-28T10:33:31;19.95;;;13.50;;
22937;SDS011;11634;42.734;23.298;2024-02-28T10:35:58;24.58;;;12.98;;
22937;SDS011;11634;42.734;23.298;2024-02-28T10:38:24;16.88;;;12.02;;
22937;SDS011;11634;42.734;23.298;2024-02-28T10:40:51;19.02;;;11.80;;
22937;SDS011;11634;42.734;23.298;2024-02-28T10:43:18;18.15;;;11.52;;
22937;SDS011;11634;42.734;23.298;2024-02-28T10:45:44;15.23;;;9.88;;
22937;SDS011;11634;42.734;23.298;2024-02-28T10:48:10;13.85;;;10.35;;
22937;SDS011;11634;42.734;23.298;2024-02-28T10:50:36;14.10;;;10.73;;
22937;SDS011;11634;42.734;23.298;2024-02-28T10:53:02;14.95;;;11.18;;
22937;SDS011;11634;42.734;23.298;2024-02-28T10:55:36;15.52;;;10.75;;
22937;SDS011;11634;42.734;23.298;2024-02-28T10:58:08;13.70;;;8.20;;
22937;SDS011;11634;42.734;23.298;2024-02-28T11:00:35;12.15;;;9.57;;
22937;SDS011;11634;42.734;23.298;2024-02-28T11:03:04;13.75;;;9.40;;
22937;SDS011;11634;42.734;23.298;2024-02-28T11:05:39;16.58;;;9.40;;
22937;SDS011;11634;42.734;23.298;2024-02-28T11:08:08;13.45;;;8.50;;
22937;SDS011;11634;42.734;23.298;2024-02-28T11:10:34;11.27;;;6.45;;
22937;SDS011;11634;42.734;23.298;2024-02-28T11:13:00;11.23;;;7.38;;
22937;SDS011;11634;42.734;23.298;2024-02-28T11:15:25;11.50;;;7.78;;
22937;SDS011;11634;42.734;23.298;2024-02-28T11:17:55;12.23;;;7.75;;
22937;SDS011;11634;42.734;23.298;2024-02-28T11:20:32;11.50;;;7.65;;
22937;SDS011;11634;42.734;23.298;2024-02-28T11:22:57;13.57;;;7.53;;
22937;SDS011;11634;42.734;23.298;2024-02-28T11:25:26;14.32;;;7.57;;
22937;SDS011;11634;42.734;23.298;2024-02-28T11:27:53;14.55;;;8.40;;
22937;SDS011;11634;42.734;23.298;2024-02-28T11:30:21;14.52;;;7.75;;
22937;SDS011;11634;42.734;23.298;2024-02-28T11:32:46;13.00;;;8.88;;
22937;SDS011;11634;42.734;23.298;2024-02-28T11:35:12;26.20;;;8.20;;
22937;SDS011;11634;42.734;23.298;2024-02-28T11:37:38;10.60;;;6.57;;
22937;SDS011;11634;42.734;23.298;2024-02-28T11:40:07;10.05;;;6.88;;
22937;SDS011;11634;42.734;23.298;2024-02-28T11:42:39;15.57;;;6.68;;
22937;SDS011;11634;42.734;23.298;2024-02-28T11:45:05;10.07;;;6.00;;
22937;SDS011;11634;42.734;23.298;2024-02-28T11:47:35;10.40;;;6.35;;
22937;SDS011;11634;42.734;23.298;2024-02-28T11:50:02;12.65;;;6.05;;
22937;SDS011;11634;42.734;23.298;2024-02-28T11:52:30;10.73;;;6.65;;
22937;SDS011;11634;42.734;23.298;2024-02-28T11:54:57;11.02;;;6.78;;
22937;SDS011;11634;42.734;23.298;2024-02-28T11:57:23;14.50;;;7.20;;
22937;SDS011;11634;42.734;23.298;2024-02-28T11:59:48;10.52;;;6.63;;
22937;SDS011;11634;42.734;23.298;2024-02-28T12:02:14;9.70;;;6.45;;
22937;SDS011;11634;42.734;23.298;2024-02-28T12:04:44;11.45;;;7.40;;
22937;SDS011;11634;42.734;23.298;2024-02-28T12:07:10;14.10;;;7.25;;
22937;SDS011;11634;42.734;23.298;2024-02-28T12:09:35;11.30;;;6.85;;
22937;SDS011;11634;42.734;23.298;2024-02-28T12:12:01;11.38;;;6.15;;
22937;SDS011;11634;42.734;23.298;2024-02-28T12:14:27;11.00;;;7.00;;
22937;SDS011;11634;42.734;23.298;2024-02-28T12:16:52;10.77;;;6.03;;
22937;SDS011;11634;42.734;23.298;2024-02-28T12:19:19;11.70;;;5.65;;
22937;SDS011;11634;42.734;23.298;2024-02-28T12:21:46;8.60;;;5.45;;
22937;SDS011;11634;42.734;23.298;2024-02-28T12:24:12;8.18;;;5.57;;
22937;SDS011;11634;42.734;23.298;2024-02-28T12:26:38;10.57;;;5.97;;
22937;SDS011;11634;42.734;23.298;2024-02-28T12:29:04;12.38;;;6.30;;
22937;SDS011;11634;42.734;23.298;2024-02-28T12:31:31;10.45;;;6.20;;
22937;SDS011;11634;42.734;23.298;2024-02-28T12:33:57;8.40;;;6.10;;
22937;SDS011;11634;42.734;23.298;2024-02-28T12:36:23;13.73;;;6.00;;
22937;SDS011;11634;42.734;23.298;2024-02-28T12:38:48;13.80;;;7.10;;
22937;SDS011;11634;42.734;23.298;2024-02-28T12:41:14;12.18;;;7.45;;
22937;SDS011;11634;42.734;23.298;2024-02-28T12:43:40;11.57;;;7.20;;
22937;SDS011;11634;42.734;23.298;2024-02-28T12:46:06;12.07;;;6.82;;
22937;SDS011;11634;42.734;23.298;2024-02-28T12:48:38;12.10;;;7.10;;
22937;SDS011;11634;42.734;23.298;2024-02-28T12:51:04;11.75;;;8.05;;
22937;SDS011;11634;42.734;23.298;2024-02-28T12:53:31;11.80;;;6.82;;
22937;SDS011;11634;42.734;23.298;2024-02-28T12:55:56;15.93;;;8.07;;
22937;SDS011;11634;42.734;23.298;2024-02-28T12:58:22;11.63;;;7.30;;
22937;SDS011;11634;42.734;23.298;2024-02-28T13:00:49;13.60;;;7.45;;
22937;SDS011;11634;42.734;23.298;2024-02-28T13:03:14;12.25;;;8.52;;
22937;SDS011;11634;42.734;23.298;2024-02-28T13:05:41;11.20;;;8.23;;
22937;SDS011;11634;42.734;23.298;2024-02-28T13:08:07;13.15;;;7.80;;
22937;SDS011;11634;42.734;23.298;2024-02-28T13:10:34;12.15;;;8.18;;
22937;SDS011;11634;42.734;23.298;2024-02-28T13:13:02;15.23;;;6.72;;
22937;SDS011;11634;42.734;23.298;2024-02-28T13:15:29;12.05;;;7.80;;
22937;SDS011;11634;42.734;23.298;2024-02-28T13:17:55;10.90;;;6.38;;
22937;SDS011;11634;42.734;23.298;2024-02-28T13:20:22;14.35;;;7.13;;
22937;SDS011;11634;42.734;23.298;2024-02-28T13:22:47;11.52;;;7.13;;
22937;SDS011;11634;42.734;23.298;2024-02-28T13:25:13;9.68;;;6.38;;
22937;SDS011;11634;42.734;23.298;2024-02-28T13:27:39;10.32;;;7.07;;
22937;SDS011;11634;42.734;23.298;2024-02-28T13:30:05;12.55;;;7.57;;
22937;SDS011;11634;42.734;23.298;2024-02-28T13:32:31;11.25;;;6.95;;
22937;SDS011;11634;42.734;23.298;2024-02-28T13:34:56;11.60;;;6.68;;
22937;SDS011;11634;42.734;23.298;2024-02-28T13:37:22;9.25;;;6.35;;
22937;SDS011;11634;42.734;23.298;2024-02-28T13:39:48;9.30;;;6.90;;
22937;SDS011;11634;42.734;23.298;2024-02-28T13:42:17;10.90;;;6.95;;
22937;SDS011;11634;42.734;23.298;2024-02-28T13:44:45;11.70;;;7.10;;
22937;SDS011;11634;42.734;23.298;2024-02-28T13:47:12;9.30;;;5.93;;
22937;SDS011;11634;42.734;23.298;2024-02-28T13:49:38;12.43;;;6.85;;
22937;SDS011;11634;42.734;23.298;2024-02-28T13:52:04;8.25;;;6.20;;
22937;SDS011;11634;42.734;23.298;2024-02-28T13:54:31;12.35;;;8.05;;
22937;SDS011;11634;42.734;23.298;2024-02-28T13:56:56;11.45;;;7.35;;
22937;SDS011;11634;42.734;23.298;2024-02-28T13:59:23;13.18;;;7.47;;
22937;SDS011;11634;42.734;23.298;2024-02-28T14:01:49;11.20;;;6.20;;
22937;SDS011;11634;42.734;23.298;2024-02-28T14:04:14;10.50;;;6.40;;
22937;SDS011;11634;42.734;23.298;2024-02-28T14:06:40;12.05;;;6.38;;